createdAt,value
2022-09-21T00:03:36.563Z,13.00
2022-09-21T00:07:38.490Z,12.95
2022-09-21T00:11:41.168Z,12.88
2022-09-21T00:15:43.079Z,12.84
2022-09-21T00:19:45.051Z,12.82
2022-09-21T00:23:47.064Z,12.79
2022-09-21T00:27:50.157Z,12.76
2022-09-21T00:31:52.089Z,12.71
2022-09-21T00:35:54.051Z,12.69
2022-09-21T00:39:56.517Z,12.68
2022-09-21T00:44:34.002Z,12.63
2022-09-21T00:48:36.078Z,12.60
2022-09-21T00:52:43.633Z,12.58
2022-09-21T00:56:47.064Z,12.56
2022-09-21T01:00:49.993Z,12.50
2022-09-21T01:04:56.220Z,12.48
2022-09-21T01:08:59.318Z,12.47
2022-09-21T01:13:31.006Z,12.41
2022-09-21T01:18:00.218Z,12.32
2022-09-21T01:22:27.900Z,12.21
2022-09-21T01:26:47.956Z,12.14
2022-09-21T01:30:53.759Z,12.08
2022-09-21T01:35:08.580Z,12.03
2022-09-21T01:39:14.594Z,11.99
2022-09-21T01:43:25.511Z,11.96
2022-09-21T01:47:31.697Z,11.94
2022-09-21T01:51:35.891Z,11.90
2022-09-21T01:55:46.324Z,11.83
2022-09-21T02:00:07.462Z,11.73
2022-09-21T02:04:14.128Z,11.67
2022-09-21T02:08:15.964Z,11.58
2022-09-21T02:12:19.341Z,11.52
2022-09-21T02:16:21.387Z,11.47
2022-09-21T02:20:30.454Z,11.38
2022-09-21T02:24:54.669Z,11.33
2022-09-21T02:29:07.598Z,11.29
2022-09-21T02:33:37.414Z,11.23
2022-09-21T02:37:58.998Z,11.16
2022-09-21T02:42:03.646Z,11.11
2022-09-21T02:46:12.140Z,11.06
2022-09-21T02:50:21.368Z,11.03
2022-09-21T02:54:26.058Z,10.98
2022-09-21T02:58:29.850Z,10.97
2022-09-21T03:02:43.556Z,10.95
2022-09-21T03:06:45.284Z,10.92
2022-09-21T03:10:49.273Z,10.93
2022-09-21T03:14:51.436Z,10.93
2022-09-21T03:18:53.120Z,10.91
2022-09-21T03:22:54.786Z,10.84
2022-09-21T03:26:56.557Z,10.77
2022-09-21T03:30:58.524Z,10.68
2022-09-21T03:35:00.211Z,10.64
2022-09-21T03:39:01.880Z,10.61
2022-09-21T03:43:04.277Z,10.63
2022-09-21T03:47:06.821Z,10.65
2022-09-21T03:51:08.603Z,10.64
2022-09-21T03:55:10.351Z,10.63
2022-09-21T03:59:14.329Z,10.60
2022-09-21T04:03:16.154Z,10.55
2022-09-21T04:07:17.869Z,10.48
2022-09-21T04:11:23.108Z,10.44
2022-09-21T04:15:24.862Z,10.43
2022-09-21T04:19:26.651Z,10.48
2022-09-21T04:23:28.321Z,10.52
2022-09-21T04:27:30.001Z,10.58
2022-09-21T04:31:31.977Z,10.61
2022-09-21T04:35:33.684Z,10.61
2022-09-21T04:39:35.542Z,10.58
2022-09-21T04:43:37.244Z,10.58
2022-09-21T04:47:38.916Z,10.59
2022-09-21T04:51:40.666Z,10.57
2022-09-21T04:55:42.346Z,10.54
2022-09-21T04:59:44.018Z,10.54
2022-09-21T05:03:45.729Z,10.53
2022-09-21T05:07:47.426Z,10.51
2022-09-21T05:11:49.183Z,10.51
2022-09-21T05:15:50.862Z,10.52
2022-09-21T05:19:53.531Z,10.52
2022-09-21T05:23:56.057Z,10.54
2022-09-21T05:27:57.811Z,10.52
2022-09-21T05:32:08.676Z,10.50
2022-09-21T05:36:13.516Z,10.53
2022-09-21T05:40:15.601Z,10.56
2022-09-21T05:44:17.518Z,10.60
2022-09-21T05:48:23.964Z,10.66
2022-09-21T05:52:34.561Z,10.73
2022-09-21T05:56:43.160Z,10.84
2022-09-21T06:01:00.371Z,10.88
2022-09-21T06:05:02.852Z,10.93
2022-09-21T06:09:04.772Z,10.96
2022-09-21T06:13:06.438Z,10.98
2022-09-21T06:17:08.204Z,11.01
2022-09-21T06:21:10.341Z,11.05
2022-09-21T06:25:12.262Z,11.08
2022-09-21T06:29:13.997Z,11.12
2022-09-21T06:33:20.765Z,11.24
2022-09-21T06:37:22.668Z,11.32
2022-09-21T06:41:24.384Z,11.40
2022-09-21T06:45:27.205Z,11.49
2022-09-21T06:49:28.950Z,11.61
2022-09-21T06:53:32.877Z,11.73
2022-09-21T06:57:34.674Z,11.83
2022-09-21T07:01:36.612Z,11.93
2022-09-21T07:05:38.432Z,12.03
2022-09-21T07:14:01.892Z,12.28
2022-09-21T07:18:14.166Z,12.43
2022-09-21T07:22:15.950Z,12.53
2022-09-21T07:26:18.153Z,12.63
2022-09-21T07:30:19.830Z,12.73
2022-09-21T07:34:21.530Z,12.86
2022-09-21T07:38:24.162Z,12.94
2022-09-21T07:42:27.987Z,13.05
2022-09-21T07:46:29.953Z,13.11
2022-09-21T07:50:33.836Z,13.17
2022-09-21T07:54:36.171Z,13.26
2022-09-21T07:58:56.991Z,13.36
2022-09-21T08:02:59.213Z,13.45
2022-09-21T08:07:00.998Z,13.55
2022-09-21T08:11:07.145Z,13.61
2022-09-21T08:15:25.028Z,13.68
2022-09-21T08:19:31.988Z,13.76
2022-09-21T08:23:34.362Z,13.83
2022-09-21T08:27:36.126Z,13.95
2022-09-21T08:31:37.892Z,14.07
2022-09-21T08:35:39.884Z,14.19
2022-09-21T08:39:41.650Z,14.35
2022-09-21T08:43:45.512Z,14.44
2022-09-21T08:47:53.225Z,14.49
2022-09-21T08:52:02.902Z,14.54
2022-09-21T08:56:04.982Z,14.57
2022-09-21T09:00:14.520Z,14.58
2022-09-21T09:04:37.732Z,14.62
2022-09-21T09:08:52.385Z,14.63
2022-09-21T09:13:19.870Z,14.63
2022-09-21T09:17:39.698Z,14.62
2022-09-21T09:21:43.739Z,14.60
2022-09-21T09:26:01.714Z,14.55
2022-09-21T09:30:19.562Z,14.52
2022-09-21T09:34:42.484Z,14.51
2022-09-21T09:38:57.668Z,14.50
2022-09-21T09:43:15.443Z,14.50
2022-09-21T09:47:33.793Z,14.50
2022-09-21T09:51:37.678Z,14.51
2022-09-21T09:55:43.839Z,14.53
2022-09-21T09:59:54.423Z,14.53
2022-09-21T10:04:11.325Z,14.55
2022-09-21T10:08:43.767Z,14.59
2022-09-21T10:12:47.188Z,14.66
2022-09-21T10:16:52.077Z,14.68
2022-09-21T10:21:24.657Z,14.68
2022-09-21T10:25:26.641Z,14.70
2022-09-21T10:29:32.281Z,14.70
2022-09-21T10:33:47.842Z,14.70
2022-09-21T10:38:09.585Z,14.70
2022-09-21T10:42:17.723Z,14.73
2022-09-21T10:46:33.667Z,14.82
2022-09-21T10:50:43.711Z,14.85
2022-09-21T10:54:48.859Z,14.90
2022-09-21T10:59:10.614Z,14.97
2022-09-21T11:03:30.640Z,15.00
2022-09-21T11:08:05.442Z,15.06
2022-09-21T11:12:34.122Z,15.15
2022-09-21T11:16:51.524Z,15.22
2022-09-21T11:20:59.787Z,15.26
2022-09-21T11:25:23.404Z,15.27
2022-09-21T11:29:36.970Z,15.37
2022-09-21T11:33:47.694Z,15.52
2022-09-21T11:38:38.807Z,15.50
2022-09-21T11:43:02.646Z,15.44
2022-09-21T11:47:34.210Z,15.40
2022-09-21T11:51:57.251Z,15.39
2022-09-21T11:56:31.803Z,15.43
2022-09-21T12:00:58.173Z,15.51
2022-09-21T12:05:24.416Z,15.59
2022-09-21T12:09:51.083Z,15.67
2022-09-21T12:14:22.300Z,15.75
2022-09-21T12:18:43.943Z,15.79
2022-09-21T12:22:52.332Z,15.89
2022-09-21T12:27:03.053Z,16.03
2022-09-21T12:31:15.000Z,16.09
2022-09-21T12:35:40.284Z,16.17
2022-09-21T12:39:51.868Z,16.13
2022-09-21T12:43:53.490Z,16.05
2022-09-21T12:48:04.826Z,16.01
2022-09-21T12:52:07.354Z,15.94
2022-09-21T12:56:46.794Z,15.93
2022-09-21T13:01:05.979Z,15.96
2022-09-21T13:05:22.077Z,16.02
2022-09-21T13:09:25.591Z,16.09
2022-09-21T13:13:34.212Z,16.15
2022-09-21T13:17:36.736Z,16.27
2022-09-21T13:21:38.827Z,16.43
2022-09-21T13:25:40.477Z,16.55
2022-09-21T13:29:43.195Z,16.66
2022-09-21T13:34:19.436Z,16.72
2022-09-21T13:38:25.994Z,16.69
2022-09-21T13:42:33.794Z,16.58
2022-09-21T13:46:35.366Z,16.42
2022-09-21T13:50:43.586Z,16.27
2022-09-21T13:54:45.234Z,16.16
2022-09-21T13:58:52.220Z,16.13
2022-09-21T14:03:04.444Z,16.09
2022-09-21T14:07:07.991Z,16.06
2022-09-21T14:11:16.983Z,16.04
2022-09-21T14:15:19.302Z,16.02
2022-09-21T14:19:21.059Z,15.99
2022-09-21T14:23:22.688Z,15.97
2022-09-21T14:27:45.454Z,16.06
2022-09-21T14:31:49.625Z,16.17
2022-09-21T14:35:51.637Z,16.32
2022-09-21T14:39:53.756Z,16.46
2022-09-21T14:43:56.749Z,16.59
2022-09-21T14:48:50.306Z,16.63
2022-09-21T14:53:15.111Z,16.56
2022-09-21T14:57:37.426Z,16.46
2022-09-21T15:01:42.550Z,16.37
2022-09-21T15:05:48.357Z,16.27
2022-09-21T15:10:33.652Z,16.26
2022-09-21T15:14:43.566Z,16.31
2022-09-21T15:18:47.322Z,16.33
2022-09-21T15:22:55.890Z,16.40
2022-09-21T15:27:10.502Z,16.44
2022-09-21T15:31:12.518Z,16.47
2022-09-21T15:35:18.724Z,16.50
2022-09-21T15:39:31.505Z,16.45
2022-09-21T15:43:34.585Z,16.40
2022-09-21T15:47:37.722Z,16.38
2022-09-21T15:51:44.998Z,16.37
2022-09-21T15:55:48.524Z,16.34
2022-09-21T15:59:50.235Z,16.27
2022-09-21T16:04:14.386Z,16.26
2022-09-21T16:08:19.208Z,16.26
2022-09-21T16:12:38.740Z,16.21
2022-09-21T16:17:09.342Z,16.13
2022-09-21T16:21:32.977Z,16.08
2022-09-21T16:25:38.410Z,16.05
2022-09-21T16:29:43.843Z,15.99
2022-09-21T16:33:49.101Z,15.94
2022-09-21T16:37:51.900Z,15.87
2022-09-21T16:42:01.377Z,15.77
2022-09-21T16:46:03.481Z,15.70
2022-09-21T16:50:07.696Z,15.62
2022-09-21T16:54:09.535Z,15.52
2022-09-21T16:58:11.658Z,15.45
2022-09-21T17:02:14.442Z,15.37
2022-09-21T17:06:19.111Z,15.26
2022-09-21T17:10:27.300Z,15.19
2022-09-21T17:14:35.509Z,15.10
2022-09-21T17:18:37.279Z,15.02
2022-09-21T17:22:38.960Z,14.97
2022-09-21T17:26:41.506Z,14.91
2022-09-21T17:30:45.605Z,14.83
2022-09-21T17:34:53.322Z,14.72
2022-09-21T17:38:56.444Z,14.60
2022-09-21T17:43:13.415Z,14.49
2022-09-21T17:47:28.253Z,14.40
2022-09-21T17:51:48.984Z,14.30
2022-09-21T17:56:13.374Z,14.19
2022-09-21T18:00:18.591Z,14.07
2022-09-21T18:04:20.491Z,13.99
2022-09-21T18:08:22.285Z,13.92
2022-09-21T18:12:58.098Z,13.81
2022-09-21T18:17:05.444Z,13.73
2022-09-21T18:21:17.118Z,13.67
2022-09-21T18:25:27.877Z,13.60
2022-09-21T18:29:40.668Z,13.55
2022-09-21T18:34:15.493Z,13.45
2022-09-21T18:38:49.567Z,13.38
2022-09-21T18:43:12.529Z,13.27
2022-09-21T18:47:26.710Z,13.20
2022-09-21T18:51:47.198Z,13.14
2022-09-21T18:55:49.382Z,13.11
2022-09-21T18:59:51.410Z,13.07
2022-09-21T19:03:53.513Z,13.03
2022-09-21T19:08:09.346Z,12.95
2022-09-21T19:12:15.073Z,12.89
2022-09-21T19:16:31.620Z,12.82
2022-09-21T19:21:10.595Z,12.77
2022-09-21T19:25:30.261Z,12.70
2022-09-21T19:30:04.539Z,12.65
2022-09-21T19:34:17.122Z,12.57
2022-09-21T19:38:19.268Z,12.55
2022-09-21T19:42:30.512Z,12.52
2022-09-21T19:46:41.301Z,12.46
2022-09-21T19:50:50.955Z,12.40
2022-09-21T19:55:11.546Z,12.37
2022-09-21T19:59:31.939Z,12.33
2022-09-21T20:03:42.269Z,12.28
2022-09-21T20:07:51.974Z,12.25
2022-09-21T20:11:59.208Z,12.21
2022-09-21T20:16:19.418Z,12.18
2022-09-21T20:20:29.163Z,12.12
2022-09-21T20:24:42.254Z,12.05
2022-09-21T20:28:44.234Z,12.02
2022-09-21T20:32:50.702Z,11.99
2022-09-21T20:36:52.341Z,11.97
2022-09-21T20:40:55.017Z,11.94
2022-09-21T20:44:56.789Z,11.91
2022-09-21T20:49:08.305Z,11.87
2022-09-21T20:53:10.558Z,11.85
2022-09-21T20:57:12.507Z,11.80
2022-09-21T21:01:14.175Z,11.75
2022-09-21T21:05:18.602Z,11.74
2022-09-21T21:09:20.357Z,11.71
2022-09-21T21:13:22.757Z,11.70
2022-09-21T21:17:24.469Z,11.66
2022-09-21T21:21:26.678Z,11.64
2022-09-21T21:25:28.469Z,11.62
2022-09-21T21:29:31.614Z,11.56
2022-09-21T21:33:33.268Z,11.49
2022-09-21T21:37:35.189Z,11.45
2022-09-21T21:41:36.889Z,11.43
2022-09-21T21:45:39.527Z,11.38
2022-09-21T21:49:41.240Z,11.37
2022-09-21T21:53:43.843Z,11.37
2022-09-21T21:57:45.823Z,11.37
2022-09-21T22:01:47.931Z,11.35
2022-09-21T22:05:55.845Z,11.31
2022-09-21T22:09:57.518Z,11.25
2022-09-21T22:14:01.334Z,11.21
2022-09-21T22:18:03.049Z,11.20
2022-09-21T22:22:04.820Z,11.19
2022-09-21T22:26:09.588Z,11.20
2022-09-21T22:30:11.698Z,11.18
2022-09-21T22:34:14.671Z,11.14
2022-09-21T22:38:16.384Z,11.11
2022-09-21T22:42:18.036Z,11.10
2022-09-21T22:46:20.604Z,11.07
2022-09-21T22:50:22.302Z,11.00
2022-09-21T22:54:24.077Z,10.98
2022-09-21T22:58:25.932Z,10.95
2022-09-21T23:02:28.070Z,10.93
2022-09-21T23:06:33.539Z,10.90
2022-09-21T23:10:35.320Z,10.91
2022-09-21T23:14:37.006Z,10.90
2022-09-21T23:18:40.090Z,10.88
2022-09-21T23:22:41.774Z,10.86
2022-09-21T23:26:43.557Z,10.83
2022-09-21T23:30:45.306Z,10.79
2022-09-21T23:34:47.239Z,10.77
2022-09-21T23:38:49.822Z,10.73
2022-09-21T23:42:51.530Z,10.68
2022-09-21T23:46:53.243Z,10.68
2022-09-21T23:50:56.270Z,10.68
2022-09-21T23:54:57.932Z,10.65
2022-09-21T23:59:00.101Z,10.64
